Larose, Louisiana
Current Conditions -  °F | °C
As of 12:47 PM on Friday 28 Nov 2014 (Local Time) from KHUM Reporting Station
Clear Clear  
Wind Chill: 61°   Ceiling: Unl
Heat Index: 61°   Visibility: 7mi
Dew Point: 43°   Wind: 5mph
Humidity: 52%   Direction: 20°NNE
Pressure: 30.34"   Gusts: NA
Location:  29.57°N, 90.38°W
Report Text: KHUM 281847Z 02004KT 7SM SKC 16/06 A3034 RMK RY12/30 CLOSED ATIS S VA/RY36 MS
Loading
Personal Weather Stations






























Interactive Weather Map New forecast layout! Learn more

10-Day Weather Forecast

Advertisements
Track Severe Weather on mobile